Coeburn, VA

11:25 AM EDT on September 04, 2015 (GMT -0400)
Rock Bar Road | | Change Station
CLOSE
Current Station
Personal Weather Station
Location: Wise, VA
Elevation: 2579 ft
Nearby Weather Stations

Elev 2579 ft 36.96 °N, 82.57 °W | Updated 10 minutes ago

Clear
Clear
86.0 °F
Feels Like 89 °F
N
2.7
Wind Variable Wind from ESE

Today
High -- | Low -- °F
--% Chance of Precip.
Yesterday
High -- | Low -- °F
Precip. -- in
7:02 AM 7:54 PM
Waning Gibbous, 58% visible
Pressure 30.18 in
Visibility 10.0 miles
Clouds Clear
Heat Index 89 °F
Dew Point 67 °F
Humidity 54%
Rainfall 0.00 in
Snow Depth Not available.
UV 7 out of 12
Pollen 8.80 out of 12
Air Quality Not available.
Flu Activity Not available.
METAR KLNP 041515Z AUTO 36006KT 10SM CLR 26/17 A3018 RMK AO2
Pressure 30.18 in
Visibility 10.0 miles
Clouds Clear
Heat Index 89 °F
Dew Point 67 °F
Humidity 54%
Rainfall 0.00 in
Snow Depth Not available.
UV 7 out of 12
Pollen 8.80 out of 12
Air Quality Not available.
Flu Activity Not available.
METAR KLNP 041515Z AUTO 36006KT 10SM CLR 26/17 A3018 RMK AO2

10-Day Weather Forecast

×

Almanac

Astronomy

Sep. 04, 2015 Rise Set
Actual Time
Civil Twilight
Nautical Twilight
Astronomical Twilight
Moon
Length of Visible Light
Length of Day
Tomorrow will be .
, % of the Moon is Illuminated

Today's Extremes

State Highs State Lows

Community

WunderPhotos

Upload Photos

1,852,194 photos uploaded!

WunderBlogs® & News

Nearby

Air Quality

  Air Quality AQ Index Pollutant
Not available.

Snow Depth

Station Depth Elevation

Earthquake Activity

City Distance Mag. Time & Date
Minimum magnitude displayed is 2.5.

Coastal Water Temperatures

Place Temperature

Stations

Nearby Weather Stations

Station Location Temp. Windchill Dew Point Humidity Wind Precip. Elev Updated Type